sensor_id;sensor_type;location;lat;lon;timestamp;temperature;humidity
32660;DHT22;19064;47.912;12.308;2023-02-26T00:00:22;-0.80;99.90
32660;DHT22;19064;47.912;12.308;2023-02-26T00:02:50;-0.80;99.90
32660;DHT22;19064;47.912;12.308;2023-02-26T00:05:21;-0.80;99.90
32660;DHT22;19064;47.912;12.308;2023-02-26T00:07:48;-0.80;99.90
32660;DHT22;19064;47.912;12.308;2023-02-26T00:10:17;-0.90;99.90
32660;DHT22;19064;47.912;12.308;2023-02-26T00:12:50;-0.90;99.90
32660;DHT22;19064;47.912;12.308;2023-02-26T00:15:22;-0.90;99.90
32660;DHT22;19064;47.912;12.308;2023-02-26T00:17:51;-0.80;99.90
32660;DHT22;19064;47.912;12.308;2023-02-26T00:20:22;-0.80;99.90
32660;DHT22;19064;47.912;12.308;2023-02-26T00:22:51;-0.80;99.90
32660;DHT22;19064;47.912;12.308;2023-02-26T00:25:19;-0.80;99.90
32660;DHT22;19064;47.912;12.308;2023-02-26T00:27:50;-0.90;99.90
32660;DHT22;19064;47.912;12.308;2023-02-26T00:30:19;-0.90;99.90
32660;DHT22;19064;47.912;12.308;2023-02-26T00:32:47;-0.90;99.90
32660;DHT22;19064;47.912;12.308;2023-02-26T00:35:15;-0.90;99.90
32660;DHT22;19064;47.912;12.308;2023-02-26T00:37:53;-0.90;99.90
32660;DHT22;19064;47.912;12.308;2023-02-26T00:40:22;-1.00;99.90
32660;DHT22;19064;47.912;12.308;2023-02-26T00:42:53;-1.00;99.90
32660;DHT22;19064;47.912;12.308;2023-02-26T00:45:21;-1.00;99.90
32660;DHT22;19064;47.912;12.308;2023-02-26T00:47:50;-1.00;99.90
32660;DHT22;19064;47.912;12.308;2023-02-26T00:50:24;-0.90;99.90
32660;DHT22;19064;47.912;12.308;2023-02-26T00:52:59;-0.80;99.90
32660;DHT22;19064;47.912;12.308;2023-02-26T00:55:28;-0.80;99.90
32660;DHT22;19064;47.912;12.308;2023-02-26T00:57:57;-0.80;99.90
32660;DHT22;19064;47.912;12.308;2023-02-26T01:00:25;-0.80;99.90
32660;DHT22;19064;47.912;12.308;2023-02-26T01:02:53;-0.90;99.90
32660;DHT22;19064;47.912;12.308;2023-02-26T01:05:22;-0.80;99.90
32660;DHT22;19064;47.912;12.308;2023-02-26T01:07:53;-0.80;99.90
32660;DHT22;19064;47.912;12.308;2023-02-26T01:10:25;-0.80;99.90
32660;DHT22;19064;47.912;12.308;2023-02-26T01:12:54;-0.80;99.90
32660;DHT22;19064;47.912;12.308;2023-02-26T01:15:24;-0.70;99.90
32660;DHT22;19064;47.912;12.308;2023-02-26T01:17:53;-0.70;99.90
32660;DHT22;19064;47.912;12.308;2023-02-26T01:20:23;-0.80;99.90
32660;DHT22;19064;47.912;12.308;2023-02-26T01:22:52;-0.80;99.90
32660;DHT22;19064;47.912;12.308;2023-02-26T01:25:22;-0.80;99.90
32660;DHT22;19064;47.912;12.308;2023-02-26T01:27:51;-0.80;99.90
32660;DHT22;19064;47.912;12.308;2023-02-26T01:30:19;-0.80;99.90
32660;DHT22;19064;47.912;12.308;2023-02-26T01:32:50;-0.80;99.90
32660;DHT22;19064;47.912;12.308;2023-02-26T01:35:28;-0.70;99.90
32660;DHT22;19064;47.912;12.308;2023-02-26T01:38:00;-0.70;99.90
32660;DHT22;19064;47.912;12.308;2023-02-26T01:40:45;-0.70;99.90
32660;DHT22;19064;47.912;12.308;2023-02-26T01:43:22;-0.60;99.90
32660;DHT22;19064;47.912;12.308;2023-02-26T01:45:54;-0.50;99.90
32660;DHT22;19064;47.912;12.308;2023-02-26T01:48:29;-0.60;99.90
32660;DHT22;19064;47.912;12.308;2023-02-26T01:50:59;-0.60;99.90
32660;DHT22;19064;47.912;12.308;2023-02-26T01:53:27;-0.80;99.90
32660;DHT22;19064;47.912;12.308;2023-02-26T01:55:55;-0.80;99.90
32660;DHT22;19064;47.912;12.308;2023-02-26T01:58:23;-0.80;99.90
32660;DHT22;19064;47.912;12.308;2023-02-26T02:00:55;-0.80;99.90
32660;DHT22;19064;47.912;12.308;2023-02-26T02:03:22;-0.80;99.90
32660;DHT22;19064;47.912;12.308;2023-02-26T02:05:57;-0.80;99.90
32660;DHT22;19064;47.912;12.308;2023-02-26T02:08:29;-0.80;99.90
32660;DHT22;19064;47.912;12.308;2023-02-26T02:10:58;-0.90;99.90
32660;DHT22;19064;47.912;12.308;2023-02-26T02:13:33;-0.90;99.90
32660;DHT22;19064;47.912;12.308;2023-02-26T02:16:07;-0.90;99.90
32660;DHT22;19064;47.912;12.308;2023-02-26T02:18:40;-0.90;99.90
32660;DHT22;19064;47.912;12.308;2023-02-26T02:24:00;-0.90;99.90
32660;DHT22;19064;47.912;12.308;2023-02-26T02:32:07;-1.00;99.90
32660;DHT22;19064;47.912;12.308;2023-02-26T02:34:37;-1.10;99.90
32660;DHT22;19064;47.912;12.308;2023-02-26T02:37:09;-1.10;99.90
32660;DHT22;19064;47.912;12.308;2023-02-26T02:39:39;-1.10;99.90
32660;DHT22;19064;47.912;12.308;2023-02-26T02:42:16;-1.10;99.90
32660;DHT22;19064;47.912;12.308;2023-02-26T02:44:48;-1.10;99.90
32660;DHT22;19064;47.912;12.308;2023-02-26T02:47:19;-1.10;99.90
32660;DHT22;19064;47.912;12.308;2023-02-26T02:49:50;-1.20;99.90
32660;DHT22;19064;47.912;12.308;2023-02-26T02:52:20;-1.20;99.90
32660;DHT22;19064;47.912;12.308;2023-02-26T02:54:50;-1.30;99.90
32660;DHT22;19064;47.912;12.308;2023-02-26T02:57:21;-1.30;99.90
32660;DHT22;19064;47.912;12.308;2023-02-26T02:59:50;-1.30;99.90
32660;DHT22;19064;47.912;12.308;2023-02-26T03:02:22;-1.30;99.90
32660;DHT22;19064;47.912;12.308;2023-02-26T03:04:53;-1.30;99.90
32660;DHT22;19064;47.912;12.308;2023-02-26T03:07:21;-1.40;99.90
32660;DHT22;19064;47.912;12.308;2023-02-26T03:09:49;-1.40;99.90
32660;DHT22;19064;47.912;12.308;2023-02-26T03:12:20;-1.40;99.90
32660;DHT22;19064;47.912;12.308;2023-02-26T03:14:48;-1.40;99.90
32660;DHT22;19064;47.912;12.308;2023-02-26T03:17:18;-1.40;99.90
32660;DHT22;19064;47.912;12.308;2023-02-26T03:20:05;-1.40;99.90
32660;DHT22;19064;47.912;12.308;2023-02-26T03:22:42;-1.40;99.90
32660;DHT22;19064;47.912;12.308;2023-02-26T03:25:13;-1.40;99.90
32660;DHT22;19064;47.912;12.308;2023-02-26T03:27:45;-1.30;99.90
32660;DHT22;19064;47.912;12.308;2023-02-26T03:30:15;-1.40;99.90
32660;DHT22;19064;47.912;12.308;2023-02-26T03:32:48;-1.30;99.90
32660;DHT22;19064;47.912;12.308;2023-02-26T03:35:20;-1.30;99.90
32660;DHT22;19064;47.912;12.308;2023-02-26T03:37:52;-1.20;99.90
32660;DHT22;19064;47.912;12.308;2023-02-26T03:40:23;-1.10;99.90
32660;DHT22;19064;47.912;12.308;2023-02-26T03:42:53;-1.10;99.90
32660;DHT22;19064;47.912;12.308;2023-02-26T03:45:23;-1.20;99.90
32660;DHT22;19064;47.912;12.308;2023-02-26T03:47:52;-1.20;99.90
32660;DHT22;19064;47.912;12.308;2023-02-26T03:50:25;-1.20;99.90
32660;DHT22;19064;47.912;12.308;2023-02-26T03:52:54;-1.30;99.90
32660;DHT22;19064;47.912;12.308;2023-02-26T03:55:25;-1.50;99.90
32660;DHT22;19064;47.912;12.308;2023-02-26T03:57:55;-1.50;99.90
32660;DHT22;19064;47.912;12.308;2023-02-26T04:00:23;-1.60;99.90
32660;DHT22;19064;47.912;12.308;2023-02-26T04:02:54;-1.60;99.90
32660;DHT22;19064;47.912;12.308;2023-02-26T04:05:25;-1.60;99.90
32660;DHT22;19064;47.912;12.308;2023-02-26T04:07:54;-1.70;99.90
32660;DHT22;19064;47.912;12.308;2023-02-26T04:10:24;-1.70;99.90
32660;DHT22;19064;47.912;12.308;2023-02-26T04:12:57;-1.70;99.90
32660;DHT22;19064;47.912;12.308;2023-02-26T04:15:25;-1.60;99.90
32660;DHT22;19064;47.912;12.308;2023-02-26T04:17:53;-1.60;99.90
32660;DHT22;19064;47.912;12.308;2023-02-26T04:20:28;-1.50;99.90
32660;DHT22;19064;47.912;12.308;2023-02-26T04:22:55;-1.40;99.90
32660;DHT22;19064;47.912;12.308;2023-02-26T04:25:23;-1.40;99.90
32660;DHT22;19064;47.912;12.308;2023-02-26T04:27:50;-1.40;99.90
32660;DHT22;19064;47.912;12.308;2023-02-26T04:30:18;-1.40;99.90
32660;DHT22;19064;47.912;12.308;2023-02-26T04:32:46;-1.30;99.90
32660;DHT22;19064;47.912;12.308;2023-02-26T04:35:13;-1.40;99.90
32660;DHT22;19064;47.912;12.308;2023-02-26T04:37:43;-1.50;99.90
32660;DHT22;19064;47.912;12.308;2023-02-26T04:40:11;-1.60;99.90
32660;DHT22;19064;47.912;12.308;2023-02-26T04:42:39;-1.70;99.90
32660;DHT22;19064;47.912;12.308;2023-02-26T04:45:07;-1.60;99.90
32660;DHT22;19064;47.912;12.308;2023-02-26T04:47:35;-1.60;99.90
32660;DHT22;19064;47.912;12.308;2023-02-26T04:50:04;-1.60;99.90
32660;DHT22;19064;47.912;12.308;2023-02-26T04:52:39;-1.60;99.90
32660;DHT22;19064;47.912;12.308;2023-02-26T04:55:12;-1.60;99.90
32660;DHT22;19064;47.912;12.308;2023-02-26T04:57:41;-1.50;99.90
32660;DHT22;19064;47.912;12.308;2023-02-26T05:00:09;-1.50;99.90
32660;DHT22;19064;47.912;12.308;2023-02-26T05:02:37;-1.60;99.90
32660;DHT22;19064;47.912;12.308;2023-02-26T05:05:05;-1.60;99.90
32660;DHT22;19064;47.912;12.308;2023-02-26T05:07:36;-1.60;99.90
32660;DHT22;19064;47.912;12.308;2023-02-26T05:10:04;-1.60;99.90
32660;DHT22;19064;47.912;12.308;2023-02-26T05:12:36;-1.60;99.90
32660;DHT22;19064;47.912;12.308;2023-02-26T05:15:05;-1.60;99.90
32660;DHT22;19064;47.912;12.308;2023-02-26T05:17:34;-1.70;99.90
32660;DHT22;19064;47.912;12.308;2023-02-26T05:20:02;-1.70;99.90
32660;DHT22;19064;47.912;12.308;2023-02-26T05:22:30;-1.70;99.90
32660;DHT22;19064;47.912;12.308;2023-02-26T05:24:57;-1.70;99.90
32660;DHT22;19064;47.912;12.308;2023-02-26T05:27:25;-1.70;99.90
32660;DHT22;19064;47.912;12.308;2023-02-26T05:29:58;-1.60;99.90
32660;DHT22;19064;47.912;12.308;2023-02-26T05:32:26;-1.60;99.90
32660;DHT22;19064;47.912;12.308;2023-02-26T05:34:54;-1.60;99.90
32660;DHT22;19064;47.912;12.308;2023-02-26T05:37:22;-1.60;99.90
32660;DHT22;19064;47.912;12.308;2023-02-26T05:39:51;-1.60;99.90
32660;DHT22;19064;47.912;12.308;2023-02-26T05:42:19;-1.70;99.90
32660;DHT22;19064;47.912;12.308;2023-02-26T05:44:47;-1.60;99.90
32660;DHT22;19064;47.912;12.308;2023-02-26T05:47:17;-1.60;99.90
32660;DHT22;19064;47.912;12.308;2023-02-26T05:49:44;-1.60;99.90
32660;DHT22;19064;47.912;12.308;2023-02-26T05:52:13;-1.60;99.90
32660;DHT22;19064;47.912;12.308;2023-02-26T05:54:40;-1.60;99.90
32660;DHT22;19064;47.912;12.308;2023-02-26T05:57:08;-1.60;99.90
32660;DHT22;19064;47.912;12.308;2023-02-26T05:59:36;-1.70;99.90
32660;DHT22;19064;47.912;12.308;2023-02-26T06:02:04;-1.80;99.90
32660;DHT22;19064;47.912;12.308;2023-02-26T06:04:36;-1.80;99.90
32660;DHT22;19064;47.912;12.308;2023-02-26T06:07:04;-1.90;99.90
32660;DHT22;19064;47.912;12.308;2023-02-26T06:09:31;-1.90;99.90
32660;DHT22;19064;47.912;12.308;2023-02-26T06:11:59;-1.90;99.90
32660;DHT22;19064;47.912;12.308;2023-02-26T06:14:27;-1.80;99.90
32660;DHT22;19064;47.912;12.308;2023-02-26T06:16:55;-1.80;99.90
32660;DHT22;19064;47.912;12.308;2023-02-26T06:19:23;-1.80;99.90
32660;DHT22;19064;47.912;12.308;2023-02-26T06:21:52;-1.70;99.90
32660;DHT22;19064;47.912;12.308;2023-02-26T06:24:20;-1.80;99.90
32660;DHT22;19064;47.912;12.308;2023-02-26T06:26:48;-1.80;99.90
32660;DHT22;19064;47.912;12.308;2023-02-26T06:29:15;-1.80;99.90
32660;DHT22;19064;47.912;12.308;2023-02-26T06:31:46;-1.80;99.90
32660;DHT22;19064;47.912;12.308;2023-02-26T06:34:14;-1.80;99.90
32660;DHT22;19064;47.912;12.308;2023-02-26T06:36:42;-1.90;99.90
32660;DHT22;19064;47.912;12.308;2023-02-26T06:39:23;-1.80;99.90
32660;DHT22;19064;47.912;12.308;2023-02-26T06:41:51;-1.80;99.90
32660;DHT22;19064;47.912;12.308;2023-02-26T06:44:22;-1.90;99.90
32660;DHT22;19064;47.912;12.308;2023-02-26T06:46:50;-1.90;99.90
32660;DHT22;19064;47.912;12.308;2023-02-26T06:49:18;-1.80;99.90
32660;DHT22;19064;47.912;12.308;2023-02-26T06:51:46;-1.80;99.90
32660;DHT22;19064;47.912;12.308;2023-02-26T06:54:15;-1.80;99.90
32660;DHT22;19064;47.912;12.308;2023-02-26T06:56:43;-1.90;99.90
32660;DHT22;19064;47.912;12.308;2023-02-26T06:59:11;-1.90;99.90
32660;DHT22;19064;47.912;12.308;2023-02-26T07:01:40;-1.90;99.90
32660;DHT22;19064;47.912;12.308;2023-02-26T07:04:08;-2.00;99.90
32660;DHT22;19064;47.912;12.308;2023-02-26T07:06:36;-2.00;99.90
32660;DHT22;19064;47.912;12.308;2023-02-26T07:09:04;-1.90;99.90
32660;DHT22;19064;47.912;12.308;2023-02-26T07:11:33;-1.90;99.90
32660;DHT22;19064;47.912;12.308;2023-02-26T07:14:01;-1.90;99.90
32660;DHT22;19064;47.912;12.308;2023-02-26T07:16:29;-1.90;99.90
32660;DHT22;19064;47.912;12.308;2023-02-26T07:18:57;-1.90;99.90
32660;DHT22;19064;47.912;12.308;2023-02-26T07:21:25;-1.80;99.90
32660;DHT22;19064;47.912;12.308;2023-02-26T07:23:52;-1.80;99.90
32660;DHT22;19064;47.912;12.308;2023-02-26T07:26:20;-1.80;99.90
32660;DHT22;19064;47.912;12.308;2023-02-26T07:28:49;-1.70;99.90
32660;DHT22;19064;47.912;12.308;2023-02-26T07:31:17;-1.70;99.90
32660;DHT22;19064;47.912;12.308;2023-02-26T07:33:44;-1.70;99.90
32660;DHT22;19064;47.912;12.308;2023-02-26T07:36:12;-1.60;99.90
32660;DHT22;19064;47.912;12.308;2023-02-26T07:38:40;-1.80;99.90
32660;DHT22;19064;47.912;12.308;2023-02-26T07:41:08;-1.80;99.90
32660;DHT22;19064;47.912;12.308;2023-02-26T07:43:36;-1.70;99.90
32660;DHT22;19064;47.912;12.308;2023-02-26T07:46:05;-1.70;99.90
32660;DHT22;19064;47.912;12.308;2023-02-26T07:48:35;-1.70;99.90
32660;DHT22;19064;47.912;12.308;2023-02-26T07:51:03;-1.60;99.90
32660;DHT22;19064;47.912;12.308;2023-02-26T07:53:33;-1.60;99.90
32660;DHT22;19064;47.912;12.308;2023-02-26T07:56:01;-1.60;99.90
32660;DHT22;19064;47.912;12.308;2023-02-26T07:58:28;-1.60;99.90
32660;DHT22;19064;47.912;12.308;2023-02-26T08:00:57;-1.60;99.90
32660;DHT22;19064;47.912;12.308;2023-02-26T08:03:26;-1.60;99.90
32660;DHT22;19064;47.912;12.308;2023-02-26T08:05:54;-1.40;99.90
32660;DHT22;19064;47.912;12.308;2023-02-26T08:08:22;-1.30;99.90
32660;DHT22;19064;47.912;12.308;2023-02-26T08:10:50;-1.30;99.90
32660;DHT22;19064;47.912;12.308;2023-02-26T08:13:18;-1.40;99.90
32660;DHT22;19064;47.912;12.308;2023-02-26T08:15:46;-1.30;99.90
32660;DHT22;19064;47.912;12.308;2023-02-26T08:18:14;-1.30;99.90
32660;DHT22;19064;47.912;12.308;2023-02-26T08:20:43;-1.20;99.90
32660;DHT22;19064;47.912;12.308;2023-02-26T08:23:11;-1.10;99.90
32660;DHT22;19064;47.912;12.308;2023-02-26T08:25:39;-1.10;99.90
32660;DHT22;19064;47.912;12.308;2023-02-26T08:28:08;-1.10;99.90
32660;DHT22;19064;47.912;12.308;2023-02-26T08:30:43;-1.10;99.90
32660;DHT22;19064;47.912;12.308;2023-02-26T08:33:11;-1.40;99.90
32660;DHT22;19064;47.912;12.308;2023-02-26T08:35:38;-1.40;99.90
32660;DHT22;19064;47.912;12.308;2023-02-26T08:38:10;-1.40;99.90
32660;DHT22;19064;47.912;12.308;2023-02-26T08:40:38;-1.40;99.90
32660;DHT22;19064;47.912;12.308;2023-02-26T08:43:06;-1.60;99.90
32660;DHT22;19064;47.912;12.308;2023-02-26T08:45:34;-1.60;99.90
32660;DHT22;19064;47.912;12.308;2023-02-26T08:48:01;-1.50;99.90
32660;DHT22;19064;47.912;12.308;2023-02-26T08:50:32;-1.60;99.90
32660;DHT22;19064;47.912;12.308;2023-02-26T08:53:00;-1.50;99.90
32660;DHT22;19064;47.912;12.308;2023-02-26T08:55:41;-1.40;99.90
32660;DHT22;19064;47.912;12.308;2023-02-26T08:58:12;-1.30;99.90
32660;DHT22;19064;47.912;12.308;2023-02-26T09:00:40;-1.20;99.90
32660;DHT22;19064;47.912;12.308;2023-02-26T09:03:07;-1.20;99.90
32660;DHT22;19064;47.912;12.308;2023-02-26T09:05:35;-1.10;99.90
32660;DHT22;19064;47.912;12.308;2023-02-26T09:08:01;-1.00;99.90
32660;DHT22;19064;47.912;12.308;2023-02-26T09:10:29;-1.00;99.90
32660;DHT22;19064;47.912;12.308;2023-02-26T09:12:56;-1.20;99.90
32660;DHT22;19064;47.912;12.308;2023-02-26T09:15:22;-1.20;99.90
32660;DHT22;19064;47.912;12.308;2023-02-26T09:17:49;-1.20;99.90
32660;DHT22;19064;47.912;12.308;2023-02-26T09:20:18;-1.30;99.90
32660;DHT22;19064;47.912;12.308;2023-02-26T09:22:46;-1.20;99.90
32660;DHT22;19064;47.912;12.308;2023-02-26T09:25:14;-1.20;99.90
32660;DHT22;19064;47.912;12.308;2023-02-26T09:27:42;-1.30;99.90
32660;DHT22;19064;47.912;12.308;2023-02-26T09:30:10;-1.50;99.90
32660;DHT22;19064;47.912;12.308;2023-02-26T09:32:37;-1.40;99.90
32660;DHT22;19064;47.912;12.308;2023-02-26T09:35:04;-1.40;99.90
32660;DHT22;19064;47.912;12.308;2023-02-26T09:37:32;-1.20;99.90
32660;DHT22;19064;47.912;12.308;2023-02-26T09:40:00;-1.00;99.90
32660;DHT22;19064;47.912;12.308;2023-02-26T09:42:31;-0.80;99.90
32660;DHT22;19064;47.912;12.308;2023-02-26T09:45:00;-0.60;99.90
32660;DHT22;19064;47.912;12.308;2023-02-26T09:47:28;-0.40;99.90
32660;DHT22;19064;47.912;12.308;2023-02-26T09:49:57;-0.40;99.90
32660;DHT22;19064;47.912;12.308;2023-02-26T09:52:29;-0.40;99.90
32660;DHT22;19064;47.912;12.308;2023-02-26T09:54:58;-0.40;99.90
32660;DHT22;19064;47.912;12.308;2023-02-26T09:57:26;-0.20;99.90
32660;DHT22;19064;47.912;12.308;2023-02-26T09:59:54;0.10;99.90
32660;DHT22;19064;47.912;12.308;2023-02-26T10:02:25;0.20;99.90
32660;DHT22;19064;47.912;12.308;2023-02-26T10:04:55;0.40;99.90
32660;DHT22;19064;47.912;12.308;2023-02-26T10:07:28;0.50;99.90
32660;DHT22;19064;47.912;12.308;2023-02-26T10:10:01;0.10;99.90
32660;DHT22;19064;47.912;12.308;2023-02-26T10:12:30;0.00;99.90
32660;DHT22;19064;47.912;12.308;2023-02-26T10:15:00;-0.10;99.90
32660;DHT22;19064;47.912;12.308;2023-02-26T10:17:37;-0.10;99.90
32660;DHT22;19064;47.912;12.308;2023-02-26T10:20:10;0.00;99.90
32660;DHT22;19064;47.912;12.308;2023-02-26T10:22:42;0.00;99.90
32660;DHT22;19064;47.912;12.308;2023-02-26T10:25:11;0.00;99.90
32660;DHT22;19064;47.912;12.308;2023-02-26T10:27:42;-0.10;99.90
32660;DHT22;19064;47.912;12.308;2023-02-26T10:30:15;-0.20;99.90
32660;DHT22;19064;47.912;12.308;2023-02-26T10:32:49;-0.20;99.90
32660;DHT22;19064;47.912;12.308;2023-02-26T10:35:21;-0.20;99.90
32660;DHT22;19064;47.912;12.308;2023-02-26T10:37:55;-0.30;99.90
32660;DHT22;19064;47.912;12.308;2023-02-26T10:40:26;-0.30;99.90
32660;DHT22;19064;47.912;12.308;2023-02-26T10:42:56;-0.30;99.90
32660;DHT22;19064;47.912;12.308;2023-02-26T10:45:29;-0.30;99.90
32660;DHT22;19064;47.912;12.308;2023-02-26T10:48:03;-0.20;99.90
32660;DHT22;19064;47.912;12.308;2023-02-26T10:50:35;-0.30;99.90
32660;DHT22;19064;47.912;12.308;2023-02-26T10:53:04;-0.20;99.90
32660;DHT22;19064;47.912;12.308;2023-02-26T10:55:37;-0.20;99.90
32660;DHT22;19064;47.912;12.308;2023-02-26T10:58:05;0.00;99.90
32660;DHT22;19064;47.912;12.308;2023-02-26T11:00:35;-0.10;99.90
32660;DHT22;19064;47.912;12.308;2023-02-26T11:03:04;-0.10;99.90
32660;DHT22;19064;47.912;12.308;2023-02-26T11:05:31;0.00;99.90
32660;DHT22;19064;47.912;12.308;2023-02-26T11:07:59;0.10;99.90
32660;DHT22;19064;47.912;12.308;2023-02-26T11:10:30;0.20;99.90
32660;DHT22;19064;47.912;12.308;2023-02-26T11:13:01;0.40;99.90
32660;DHT22;19064;47.912;12.308;2023-02-26T11:15:30;0.50;99.90
32660;DHT22;19064;47.912;12.308;2023-02-26T11:17:58;0.30;99.90
32660;DHT22;19064;47.912;12.308;2023-02-26T11:20:30;0.50;99.90
32660;DHT22;19064;47.912;12.308;2023-02-26T11:23:01;0.60;99.90
32660;DHT22;19064;47.912;12.308;2023-02-26T11:25:30;0.70;99.90
32660;DHT22;19064;47.912;12.308;2023-02-26T11:28:00;0.90;99.90
32660;DHT22;19064;47.912;12.308;2023-02-26T11:30:29;1.00;99.90
32660;DHT22;19064;47.912;12.308;2023-02-26T11:32:58;1.10;99.90
32660;DHT22;19064;47.912;12.308;2023-02-26T11:35:32;1.20;99.90
32660;DHT22;19064;47.912;12.308;2023-02-26T11:38:00;1.30;99.90
32660;DHT22;19064;47.912;12.308;2023-02-26T11:40:32;1.00;99.90
32660;DHT22;19064;47.912;12.308;2023-02-26T11:43:02;1.00;99.90
32660;DHT22;19064;47.912;12.308;2023-02-26T11:45:31;1.00;99.90
32660;DHT22;19064;47.912;12.308;2023-02-26T11:48:01;1.00;99.90
32660;DHT22;19064;47.912;12.308;2023-02-26T11:50:31;0.90;99.90
32660;DHT22;19064;47.912;12.308;2023-02-26T11:53:04;1.10;99.90
32660;DHT22;19064;47.912;12.308;2023-02-26T11:55:35;1.20;99.90
32660;DHT22;19064;47.912;12.308;2023-02-26T11:58:14;1.10;99.90
32660;DHT22;19064;47.912;12.308;2023-02-26T12:00:43;1.10;99.90
32660;DHT22;19064;47.912;12.308;2023-02-26T12:03:15;1.30;99.90
32660;DHT22;19064;47.912;12.308;2023-02-26T12:05:44;1.40;99.90
32660;DHT22;19064;47.912;12.308;2023-02-26T12:08:15;1.50;99.90
32660;DHT22;19064;47.912;12.308;2023-02-26T12:10:47;1.60;99.90
32660;DHT22;19064;47.912;12.308;2023-02-26T12:13:20;1.80;99.90
32660;DHT22;19064;47.912;12.308;2023-02-26T12:15:55;1.70;99.90
32660;DHT22;19064;47.912;12.308;2023-02-26T12:18:33;1.80;99.90
32660;DHT22;19064;47.912;12.308;2023-02-26T12:21:11;1.50;99.90
32660;DHT22;19064;47.912;12.308;2023-02-26T12:26:41;1.70;99.90
32660;DHT22;19064;47.912;12.308;2023-02-26T12:29:18;1.90;99.90
32660;DHT22;19064;47.912;12.308;2023-02-26T12:32:01;1.90;99.90
32660;DHT22;19064;47.912;12.308;2023-02-26T12:37:21;1.40;99.90
32660;DHT22;19064;47.912;12.308;2023-02-26T12:39:56;1.00;99.90
32660;DHT22;19064;47.912;12.308;2023-02-26T12:42:30;0.80;99.90
32660;DHT22;19064;47.912;12.308;2023-02-26T12:45:10;0.60;99.90
32660;DHT22;19064;47.912;12.308;2023-02-26T12:47:42;0.50;99.90
32660;DHT22;19064;47.912;12.308;2023-02-26T12:53:06;0.40;99.90
32660;DHT22;19064;47.912;12.308;2023-02-26T12:55:43;0.50;99.90
32660;DHT22;19064;47.912;12.308;2023-02-26T13:01:04;0.50;99.90
32660;DHT22;19064;47.912;12.308;2023-02-26T13:06:28;1.20;99.90
32660;DHT22;19064;47.912;12.308;2023-02-26T13:09:01;1.30;99.90
32660;DHT22;19064;47.912;12.308;2023-02-26T13:11:35;1.20;99.90
32660;DHT22;19064;47.912;12.308;2023-02-26T13:14:14;0.90;99.90
32660;DHT22;19064;47.912;12.308;2023-02-26T13:16:46;0.80;99.90
32660;DHT22;19064;47.912;12.308;2023-02-26T13:19:21;0.70;99.90
32660;DHT22;19064;47.912;12.308;2023-02-26T13:21:52;0.70;99.90
32660;DHT22;19064;47.912;12.308;2023-02-26T13:24:22;0.80;99.90
32660;DHT22;19064;47.912;12.308;2023-02-26T13:26:50;0.80;99.90
32660;DHT22;19064;47.912;12.308;2023-02-26T13:29:18;0.70;99.90
32660;DHT22;19064;47.912;12.308;2023-02-26T13:31:48;0.70;99.90
32660;DHT22;19064;47.912;12.308;2023-02-26T13:34:19;0.80;99.90
32660;DHT22;19064;47.912;12.308;2023-02-26T13:36:48;0.70;99.90
32660;DHT22;19064;47.912;12.308;2023-02-26T13:42:11;0.30;99.90
32660;DHT22;19064;47.912;12.308;2023-02-26T13:44:41;0.10;99.90
32660;DHT22;19064;47.912;12.308;2023-02-26T13:47:29;0.00;99.90
32660;DHT22;19064;47.912;12.308;2023-02-26T13:50:05;0.00;99.90
32660;DHT22;19064;47.912;12.308;2023-02-26T13:52:48;0.00;99.90
32660;DHT22;19064;47.912;12.308;2023-02-26T13:55:33;0.00;99.90
32660;DHT22;19064;47.912;12.308;2023-02-26T13:58:07;0.30;99.90
32660;DHT22;19064;47.912;12.308;2023-02-26T14:00:44;0.70;99.90
32660;DHT22;19064;47.912;12.308;2023-02-26T14:03:28;0.90;99.90
32660;DHT22;19064;47.912;12.308;2023-02-26T14:06:06;0.90;99.90
32660;DHT22;19064;47.912;12.308;2023-02-26T14:11:32;0.50;99.90
32660;DHT22;19064;47.912;12.308;2023-02-26T14:14:12;0.40;99.90
32660;DHT22;19064;47.912;12.308;2023-02-26T14:16:41;0.20;99.90
32660;DHT22;19064;47.912;12.308;2023-02-26T14:21:56;-0.10;99.90
32660;DHT22;19064;47.912;12.308;2023-02-26T14:24:28;-0.30;99.90
32660;DHT22;19064;47.912;12.308;2023-02-26T14:30:02;-0.50;99.90
32660;DHT22;19064;47.912;12.308;2023-02-26T14:32:32;-0.40;99.90
32660;DHT22;19064;47.912;12.308;2023-02-26T14:35:02;-0.30;99.90
32660;DHT22;19064;47.912;12.308;2023-02-26T14:37:31;-0.40;99.90
32660;DHT22;19064;47.912;12.308;2023-02-26T14:40:04;-0.30;99.90
32660;DHT22;19064;47.912;12.308;2023-02-26T14:42:35;-0.20;99.90
32660;DHT22;19064;47.912;12.308;2023-02-26T14:45:26;-0.20;99.90
32660;DHT22;19064;47.912;12.308;2023-02-26T14:47:58;-0.20;99.90
32660;DHT22;19064;47.912;12.308;2023-02-26T14:50:28;-0.20;99.90
32660;DHT22;19064;47.912;12.308;2023-02-26T14:53:08;-0.10;99.90
32660;DHT22;19064;47.912;12.308;2023-02-26T14:55:44;-0.30;99.90
32660;DHT22;19064;47.912;12.308;2023-02-26T14:58:26;-0.40;99.90
32660;DHT22;19064;47.912;12.308;2023-02-26T15:00:59;-0.80;99.90
32660;DHT22;19064;47.912;12.308;2023-02-26T15:06:27;-1.20;99.90
32660;DHT22;19064;47.912;12.308;2023-02-26T15:09:01;-1.30;99.90
32660;DHT22;19064;47.912;12.308;2023-02-26T15:11:44;-1.20;99.90
32660;DHT22;19064;47.912;12.308;2023-02-26T15:17:16;-1.20;99.90
32660;DHT22;19064;47.912;12.308;2023-02-26T15:19:50;-1.20;99.90
32660;DHT22;19064;47.912;12.308;2023-02-26T15:22:28;-1.20;99.90
32660;DHT22;19064;47.912;12.308;2023-02-26T15:25:01;-1.10;99.90
32660;DHT22;19064;47.912;12.308;2023-02-26T15:27:30;-1.10;99.90
32660;DHT22;19064;47.912;12.308;2023-02-26T15:29:58;-1.10;99.90
32660;DHT22;19064;47.912;12.308;2023-02-26T15:32:29;-1.10;99.90
32660;DHT22;19064;47.912;12.308;2023-02-26T15:34:58;-1.10;99.90
32660;DHT22;19064;47.912;12.308;2023-02-26T15:37:27;-1.00;99.90
32660;DHT22;19064;47.912;12.308;2023-02-26T15:39:55;-0.90;99.90
32660;DHT22;19064;47.912;12.308;2023-02-26T15:42:30;-0.90;99.90
32660;DHT22;19064;47.912;12.308;2023-02-26T15:45:03;-0.90;99.90
32660;DHT22;19064;47.912;12.308;2023-02-26T15:47:33;-0.80;99.90
32660;DHT22;19064;47.912;12.308;2023-02-26T15:50:01;-0.80;99.90
32660;DHT22;19064;47.912;12.308;2023-02-26T15:52:30;-0.90;99.90
32660;DHT22;19064;47.912;12.308;2023-02-26T15:55:02;-0.90;99.90
32660;DHT22;19064;47.912;12.308;2023-02-26T15:57:31;-0.80;99.90
32660;DHT22;19064;47.912;12.308;2023-02-26T16:00:00;-0.90;99.90
32660;DHT22;19064;47.912;12.308;2023-02-26T16:02:33;-0.90;99.90
32660;DHT22;19064;47.912;12.308;2023-02-26T16:05:02;-0.90;99.90
32660;DHT22;19064;47.912;12.308;2023-02-26T16:07:30;-0.80;99.90
32660;DHT22;19064;47.912;12.308;2023-02-26T16:10:03;-0.80;99.90
32660;DHT22;19064;47.912;12.308;2023-02-26T16:12:33;-0.80;99.90
32660;DHT22;19064;47.912;12.308;2023-02-26T16:15:03;-0.90;99.90
32660;DHT22;19064;47.912;12.308;2023-02-26T16:17:32;-0.90;99.90
32660;DHT22;19064;47.912;12.308;2023-02-26T16:20:03;-0.90;99.90